createdAt,value
2023-01-30T00:00:21.935Z,9.204045
2023-01-30T00:01:21.930Z,9.204045
2023-01-30T00:02:21.923Z,9.204045
2023-01-30T00:03:22.051Z,9.204045
2023-01-30T00:04:21.938Z,9.204045
2023-01-30T00:05:21.899Z,9.204045
2023-01-30T00:06:21.937Z,9.203775
2023-01-30T00:07:21.918Z,9.203625
2023-01-30T00:08:21.891Z,9.203615
2023-01-30T00:09:21.895Z,9.204185
2023-01-30T00:10:21.881Z,9.204207
2023-01-30T00:11:21.880Z,9.204207
2023-01-30T00:12:21.864Z,9.204207
2023-01-30T00:13:21.857Z,9.204207
2023-01-30T00:14:21.850Z,9.204207
2023-01-30T00:15:21.835Z,9.204207
2023-01-30T00:16:21.947Z,9.203342
2023-01-30T00:17:21.816Z,9.203342
2023-01-30T00:18:21.819Z,9.203342
2023-01-30T00:19:21.806Z,9.203599
2023-01-30T00:20:21.828Z,9.203616
2023-01-30T00:21:21.821Z,9.203728
2023-01-30T00:22:21.782Z,9.203707
2023-01-30T00:23:21.818Z,9.203436
2023-01-30T00:24:21.915Z,9.203759
2023-01-30T00:25:21.975Z,9.203600
2023-01-30T00:26:21.800Z,9.203642
2023-01-30T00:27:21.797Z,9.203777
2023-01-30T00:28:21.763Z,9.203748
2023-01-30T00:29:21.748Z,9.203726
2023-01-30T00:30:21.801Z,9.203857
2023-01-30T00:31:21.768Z,9.203866
2023-01-30T00:32:21.759Z,9.203667
2023-01-30T00:33:21.708Z,9.203635
2023-01-30T00:34:21.708Z,9.203762
2023-01-30T00:35:21.710Z,9.203609
2023-01-30T00:36:21.715Z,9.203440
2023-01-30T00:37:21.714Z,9.203629
2023-01-30T00:38:21.704Z,9.203934
2023-01-30T00:39:21.724Z,9.203617
2023-01-30T00:40:21.692Z,9.203632
2023-01-30T00:41:21.697Z,9.203615
2023-01-30T00:42:21.679Z,9.203387
2023-01-30T00:43:21.707Z,9.203456
2023-01-30T00:44:21.709Z,9.203653
2023-01-30T00:45:21.648Z,9.203508
2023-01-30T00:46:21.650Z,9.203588
2023-01-30T00:47:21.632Z,9.203498
2023-01-30T00:48:22.051Z,9.203534
2023-01-30T00:49:21.665Z,9.203547
2023-01-30T00:50:21.623Z,9.203461
2023-01-30T00:51:21.658Z,9.203485
2023-01-30T00:52:21.615Z,9.203637
2023-01-30T00:53:21.663Z,9.203624
2023-01-30T00:54:21.631Z,9.203563
2023-01-30T00:55:21.588Z,9.203668
2023-01-30T00:56:21.618Z,9.203663
2023-01-30T00:57:21.640Z,9.203517
2023-01-30T00:58:21.603Z,9.203519
2023-01-30T00:59:21.558Z,9.203536
2023-01-30T01:00:21.604Z,9.203216
2023-01-30T01:01:21.577Z,9.203588
2023-01-30T01:02:21.600Z,9.203507
2023-01-30T01:03:21.670Z,9.203719
2023-01-30T01:04:21.531Z,9.203835
2023-01-30T01:05:21.541Z,9.203638
2023-01-30T01:06:21.544Z,9.203562
2023-01-30T01:07:22.144Z,9.203341
2023-01-30T01:08:21.494Z,9.203501
2023-01-30T01:09:22.545Z,9.203198
2023-01-30T01:10:21.517Z,9.203641
2023-01-30T01:11:21.530Z,9.203277
2023-01-30T01:12:21.515Z,9.203659
2023-01-30T01:13:21.494Z,9.203607
2023-01-30T01:14:21.508Z,9.203842
2023-01-30T01:15:21.465Z,9.203889
2023-01-30T01:16:21.533Z,9.203698
2023-01-30T01:17:21.500Z,9.203574
2023-01-30T01:18:21.491Z,9.204565
2023-01-30T01:19:21.439Z,9.204306
2023-01-30T01:20:21.440Z,9.204099
2023-01-30T01:21:21.443Z,9.204062
2023-01-30T01:22:21.479Z,9.203884
2023-01-30T01:23:21.426Z,9.203808
2023-01-30T01:24:21.479Z,9.204009
2023-01-30T01:25:21.415Z,9.203856
2023-01-30T01:26:21.450Z,9.203642
2023-01-30T01:27:21.435Z,9.203670
2023-01-30T01:28:21.398Z,9.203714
2023-01-30T01:29:21.396Z,9.203803
2023-01-30T01:30:21.407Z,9.203461
2023-01-30T01:31:21.437Z,9.203431
2023-01-30T01:32:21.360Z,9.203506
2023-01-30T01:33:21.428Z,9.203513
2023-01-30T01:34:21.389Z,9.203551
2023-01-30T01:35:21.343Z,9.203714
2023-01-30T01:36:49.623Z,9.203797
2023-01-30T01:37:23.381Z,9.203793
2023-01-30T01:38:21.317Z,9.203575
2023-01-30T01:39:21.362Z,9.203643
2023-01-30T01:40:21.327Z,9.203669
2023-01-30T01:41:21.307Z,9.203775
2023-01-30T01:42:21.317Z,9.203773
2023-01-30T01:43:21.335Z,9.203789
2023-01-30T01:44:21.349Z,9.203698
2023-01-30T01:45:21.330Z,9.203670
2023-01-30T01:46:21.312Z,9.203832
2023-01-30T01:47:21.300Z,9.203736
2023-01-30T01:48:21.369Z,9.203655
2023-01-30T01:49:21.331Z,9.203628
2023-01-30T01:50:21.276Z,9.203639
2023-01-30T01:51:21.287Z,9.203568
2023-01-30T01:52:21.253Z,9.203621
2023-01-30T01:53:21.249Z,9.203635
2023-01-30T01:54:21.260Z,9.203636
2023-01-30T01:55:21.259Z,9.203911
2023-01-30T01:56:21.266Z,9.203795
2023-01-30T01:57:21.253Z,9.203669
2023-01-30T01:58:21.230Z,9.203612
2023-01-30T01:59:21.210Z,9.203725
2023-01-30T02:00:21.207Z,9.203779
2023-01-30T02:01:21.233Z,9.203843
2023-01-30T02:02:21.314Z,9.203622
2023-01-30T02:03:21.204Z,9.203872
2023-01-30T02:04:21.177Z,9.203604
2023-01-30T02:05:21.218Z,9.204198
2023-01-30T02:06:21.217Z,9.203983
2023-01-30T02:07:21.152Z,9.203850
2023-01-30T02:08:21.153Z,9.203850
2023-01-30T02:09:21.216Z,9.204198
2023-01-30T02:10:21.140Z,9.204391
2023-01-30T02:11:21.126Z,9.204185
2023-01-30T02:12:21.154Z,9.204163
2023-01-30T02:13:21.169Z,9.203941
2023-01-30T02:14:21.121Z,9.203888
2023-01-30T02:15:21.148Z,9.203862
2023-01-30T02:16:21.103Z,9.203907
2023-01-30T02:17:21.141Z,9.204021
2023-01-30T02:18:21.115Z,9.203999
2023-01-30T02:19:21.095Z,9.203938
2023-01-30T02:20:21.103Z,9.204002
2023-01-30T02:21:21.124Z,9.203912
2023-01-30T02:22:21.062Z,9.203876
2023-01-30T02:23:21.123Z,9.203587
2023-01-30T02:24:21.091Z,9.203729
2023-01-30T02:25:21.348Z,9.203547
2023-01-30T02:26:21.090Z,9.203489
2023-01-30T02:27:21.059Z,9.203399
2023-01-30T02:28:21.037Z,9.203437
2023-01-30T02:29:21.060Z,9.203529
2023-01-30T02:30:21.063Z,9.203371
2023-01-30T02:31:21.114Z,9.203556
2023-01-30T02:32:21.029Z,9.203661
2023-01-30T02:33:20.998Z,9.203757
2023-01-30T02:34:21.052Z,9.203748
2023-01-30T02:35:21.029Z,9.203939
2023-01-30T02:36:20.996Z,9.203609
2023-01-30T02:37:20.974Z,9.203677
2023-01-30T02:38:20.971Z,9.203724
2023-01-30T02:39:21.029Z,9.203902
2023-01-30T02:40:20.985Z,9.203989
2023-01-30T02:41:20.981Z,9.203793
2023-01-30T02:42:20.991Z,9.203848
2023-01-30T02:43:20.959Z,9.203872
2023-01-30T02:44:20.931Z,9.203763
2023-01-30T02:45:21.020Z,9.203752
2023-01-30T02:46:20.997Z,9.203876
2023-01-30T02:47:20.925Z,9.204385
2023-01-30T02:48:20.909Z,9.203895
2023-01-30T02:49:20.913Z,9.203813
2023-01-30T02:50:20.949Z,9.203895
2023-01-30T02:51:20.907Z,9.203672
2023-01-30T02:52:20.891Z,9.203725
2023-01-30T02:53:20.878Z,9.203753
2023-01-30T02:54:20.880Z,9.203915
2023-01-30T02:55:20.903Z,9.203817
2023-01-30T02:56:20.877Z,9.203984
2023-01-30T02:57:20.901Z,9.203911
2023-01-30T02:58:20.846Z,9.203643
2023-01-30T02:59:20.852Z,9.203576
2023-01-30T03:00:20.867Z,9.203685
2023-01-30T03:01:20.907Z,9.203746
2023-01-30T03:02:20.862Z,9.203786
2023-01-30T03:03:20.813Z,9.203752
2023-01-30T03:04:20.826Z,9.203813
2023-01-30T03:05:21.034Z,9.203873
2023-01-30T03:06:20.830Z,9.203954
2023-01-30T03:07:20.795Z,9.203762
2023-01-30T03:08:20.822Z,9.203710
2023-01-30T03:09:20.788Z,9.203636
2023-01-30T03:10:20.789Z,9.203831
2023-01-30T03:11:20.799Z,9.203493
2023-01-30T03:12:20.796Z,9.203710
2023-01-30T03:13:20.818Z,9.203965
2023-01-30T03:14:20.778Z,9.204427
2023-01-30T03:15:20.798Z,9.203752
2023-01-30T03:16:20.787Z,9.203811
2023-01-30T03:17:20.789Z,9.203676
2023-01-30T03:18:20.745Z,9.203593
2023-01-30T03:19:20.733Z,9.203682
2023-01-30T03:20:20.724Z,9.203641
2023-01-30T03:21:20.735Z,9.203786
2023-01-30T03:22:20.726Z,9.203609
2023-01-30T03:23:20.703Z,9.203661
2023-01-30T03:24:20.708Z,9.204124
2023-01-30T03:25:20.812Z,9.203764
2023-01-30T03:26:20.739Z,9.203669
2023-01-30T03:27:20.685Z,9.203640
2023-01-30T03:28:20.677Z,9.203650
2023-01-30T03:29:20.699Z,9.203564
2023-01-30T03:30:20.690Z,9.203792
2023-01-30T03:31:20.847Z,9.203930
2023-01-30T03:32:20.700Z,9.203793
2023-01-30T03:33:20.674Z,9.203712
2023-01-30T03:34:20.664Z,9.203802
2023-01-30T03:35:20.679Z,9.203564
2023-01-30T03:36:20.671Z,9.203665
2023-01-30T03:37:20.635Z,9.203537
2023-01-30T03:38:20.647Z,9.203903
2023-01-30T03:39:20.600Z,9.203681
2023-01-30T03:40:20.638Z,9.203671
2023-01-30T03:41:20.591Z,9.203633
2023-01-30T03:42:20.595Z,9.203736
2023-01-30T03:43:20.599Z,9.203731
2023-01-30T03:44:20.588Z,9.203736
2023-01-30T03:45:20.660Z,9.203734
2023-01-30T03:46:20.605Z,9.203737
2023-01-30T03:47:20.570Z,9.203798
2023-01-30T03:48:20.569Z,9.203702
2023-01-30T03:49:20.544Z,9.203673
2023-01-30T03:50:20.583Z,9.203663
2023-01-30T03:51:20.532Z,9.203653
2023-01-30T03:52:21.537Z,9.203681
2023-01-30T03:53:20.522Z,9.203750
2023-01-30T03:54:20.551Z,9.203905
2023-01-30T03:55:20.841Z,9.203757
2023-01-30T03:56:20.533Z,9.203720
2023-01-30T03:57:20.507Z,9.203811
2023-01-30T03:58:20.496Z,9.203750
2023-01-30T03:59:20.534Z,9.203804
2023-01-30T04:00:20.483Z,9.203602
2023-01-30T04:01:20.554Z,9.203590
2023-01-30T04:02:20.522Z,9.203649
2023-01-30T04:03:20.468Z,9.203620
2023-01-30T04:04:20.485Z,9.203568
2023-01-30T04:05:20.710Z,9.203560
2023-01-30T04:06:20.462Z,9.203624
2023-01-30T04:07:20.446Z,9.203740
2023-01-30T04:08:20.467Z,9.203547
2023-01-30T04:09:20.459Z,9.203636
2023-01-30T04:10:20.416Z,9.203668
2023-01-30T04:11:20.444Z,9.203667
2023-01-30T04:12:20.428Z,9.203499
2023-01-30T04:13:20.455Z,9.203666
2023-01-30T04:14:20.415Z,9.203547
2023-01-30T04:15:20.601Z,9.203609
2023-01-30T04:16:20.452Z,9.203701
2023-01-30T04:17:20.391Z,9.203609
2023-01-30T04:18:20.411Z,9.203558
2023-01-30T04:19:20.409Z,9.203592
2023-01-30T04:20:20.365Z,9.203609
2023-01-30T04:21:20.373Z,9.203535
2023-01-30T04:22:20.366Z,9.203500
2023-01-30T04:23:20.390Z,9.203665
2023-01-30T04:24:20.340Z,9.203839
2023-01-30T04:25:21.064Z,9.203609
2023-01-30T04:26:20.363Z,9.203550
2023-01-30T04:27:20.332Z,9.203650
2023-01-30T04:28:20.312Z,9.203377
2023-01-30T04:29:20.337Z,9.203437
2023-01-30T04:30:20.358Z,9.203727
2023-01-30T04:31:20.338Z,9.203685
2023-01-30T04:32:20.351Z,9.203506
2023-01-30T04:33:20.284Z,9.203571
2023-01-30T04:34:20.280Z,9.203604
2023-01-30T04:35:20.410Z,9.203505
2023-01-30T04:36:20.270Z,9.203544
2023-01-30T04:37:20.279Z,9.203562
2023-01-30T04:38:20.251Z,9.203546
2023-01-30T04:39:21.273Z,9.203597
2023-01-30T04:40:21.229Z,9.203589
2023-01-30T04:41:20.259Z,9.203424
2023-01-30T04:42:20.235Z,9.203627
2023-01-30T04:43:20.214Z,9.203694
2023-01-30T04:44:20.257Z,9.203687
2023-01-30T04:45:20.334Z,9.203603
2023-01-30T04:46:20.191Z,9.203516
2023-01-30T04:47:20.254Z,9.203593
2023-01-30T04:48:20.200Z,9.203610
2023-01-30T04:49:20.196Z,9.203599
2023-01-30T04:50:20.221Z,9.203492
2023-01-30T04:51:20.238Z,9.203429
2023-01-30T04:52:20.219Z,9.203799
2023-01-30T04:53:20.159Z,9.203540
2023-01-30T04:54:20.153Z,9.203381
2023-01-30T04:55:20.348Z,9.203604
2023-01-30T04:56:20.172Z,9.203585
2023-01-30T04:57:20.126Z,9.203711
2023-01-30T04:58:20.136Z,9.203630
2023-01-30T04:59:20.128Z,9.203395
2023-01-30T05:00:20.112Z,9.203685
2023-01-30T05:01:20.136Z,9.203652
2023-01-30T05:02:21.843Z,9.203582
2023-01-30T05:03:20.116Z,9.203545
2023-01-30T05:04:20.098Z,9.203866
2023-01-30T05:05:20.291Z,9.203516
2023-01-30T05:06:20.121Z,9.203813
2023-01-30T05:07:20.083Z,9.203721
2023-01-30T05:08:20.100Z,9.203582
2023-01-30T05:09:20.086Z,9.203580
2023-01-30T05:10:20.049Z,9.203340
2023-01-30T05:11:20.050Z,9.203626
2023-01-30T05:12:20.056Z,9.203422
2023-01-30T05:13:20.039Z,9.203502
2023-01-30T05:14:20.056Z,9.203805
2023-01-30T05:15:20.373Z,9.203184
2023-01-30T05:16:20.008Z,9.203419
2023-01-30T05:17:20.063Z,9.203433
2023-01-30T05:18:20.005Z,9.203277
2023-01-30T05:19:20.021Z,9.203603
2023-01-30T05:20:20.027Z,9.203901
2023-01-30T05:21:19.991Z,9.203478
2023-01-30T05:22:20.023Z,9.204093
2023-01-30T05:23:20.011Z,9.204079
2023-01-30T05:24:19.983Z,9.203696
2023-01-30T05:25:20.348Z,9.203784
2023-01-30T05:26:19.970Z,9.204017
2023-01-30T05:27:19.972Z,9.203891
2023-01-30T05:28:19.941Z,9.203740
2023-01-30T05:29:19.929Z,9.203740
2023-01-30T05:30:19.968Z,9.203642
2023-01-30T05:31:19.949Z,9.203657
2023-01-30T05:32:19.956Z,9.203657
2023-01-30T05:33:19.902Z,9.203666
2023-01-30T05:34:19.903Z,9.203858
2023-01-30T05:35:20.286Z,9.203753
2023-01-30T05:36:19.896Z,9.203738
2023-01-30T05:37:19.941Z,9.203751
2023-01-30T05:38:19.869Z,9.203901
2023-01-30T05:39:19.892Z,9.203815
2023-01-30T05:40:19.871Z,9.203720
2023-01-30T05:41:19.855Z,9.203630
2023-01-30T05:42:19.857Z,9.203702
2023-01-30T05:43:19.974Z,9.203708
2023-01-30T05:44:19.850Z,9.203592
2023-01-30T05:45:20.180Z,9.203632
2023-01-30T05:46:19.903Z,9.203807
2023-01-30T05:47:19.819Z,9.203739
2023-01-30T05:48:19.842Z,9.203868
2023-01-30T05:49:19.801Z,9.203719
2023-01-30T05:50:19.801Z,9.203673
2023-01-30T05:51:19.815Z,9.203611
2023-01-30T05:52:19.786Z,9.203623
2023-01-30T05:53:19.783Z,9.203739
2023-01-30T05:54:19.813Z,9.203546
2023-01-30T05:55:20.066Z,9.203467
2023-01-30T05:56:19.768Z,9.203657
2023-01-30T05:57:19.750Z,9.203704
2023-01-30T05:58:19.793Z,9.203666
2023-01-30T05:59:19.830Z,9.203744
2023-01-30T06:00:19.747Z,9.203808
2023-01-30T06:01:19.748Z,9.203618
2023-01-30T06:02:19.791Z,9.203743
2023-01-30T06:03:19.746Z,9.203819
2023-01-30T06:04:19.756Z,9.203681
2023-01-30T06:05:20.002Z,9.203732
2023-01-30T06:06:19.713Z,9.203635
2023-01-30T06:07:19.712Z,9.203691
2023-01-30T06:08:19.691Z,9.203787
2023-01-30T06:09:19.715Z,9.203704
2023-01-30T06:10:19.724Z,9.203794
2023-01-30T06:11:19.663Z,9.203864
2023-01-30T06:12:19.670Z,9.203788
2023-01-30T06:13:19.694Z,9.203759
2023-01-30T06:14:19.692Z,9.203786
2023-01-30T06:15:20.074Z,9.203756
2023-01-30T06:16:19.743Z,9.203925
2023-01-30T06:17:19.763Z,9.203889
2023-01-30T06:18:19.678Z,9.203722
2023-01-30T06:19:19.638Z,9.203864
2023-01-30T06:20:19.617Z,9.204078
2023-01-30T06:21:19.600Z,9.203806
2023-01-30T06:22:19.606Z,9.203978
2023-01-30T06:23:19.612Z,9.203897
2023-01-30T06:24:19.739Z,9.203971
2023-01-30T06:25:19.922Z,9.203994
2023-01-30T06:26:19.680Z,9.204211
2023-01-30T06:27:19.580Z,9.204025
2023-01-30T06:28:19.660Z,9.204195
2023-01-30T06:29:19.598Z,9.204220
2023-01-30T06:30:19.649Z,9.204000
2023-01-30T06:31:19.566Z,9.204734
2023-01-30T06:32:19.528Z,9.204539
2023-01-30T06:33:19.561Z,9.204311
2023-01-30T06:34:19.560Z,9.204349
2023-01-30T06:35:19.890Z,9.204021
2023-01-30T06:36:19.543Z,9.203941
2023-01-30T06:37:19.520Z,9.203968
2023-01-30T06:38:19.511Z,9.203815
2023-01-30T06:39:19.508Z,9.203526
2023-01-30T06:40:19.490Z,9.203681
2023-01-30T06:41:19.489Z,9.203691
2023-01-30T06:42:19.481Z,9.203578
2023-01-30T06:43:19.569Z,9.203623
2023-01-30T06:44:19.465Z,9.203984
2023-01-30T06:45:19.719Z,9.203769
2023-01-30T06:46:19.545Z,9.203642
2023-01-30T06:47:19.475Z,9.203620
2023-01-30T06:48:19.432Z,9.203867
2023-01-30T06:49:19.421Z,9.203696
2023-01-30T06:50:19.448Z,9.203490
2023-01-30T06:51:19.477Z,9.203577
2023-01-30T06:52:19.407Z,9.203506
2023-01-30T06:53:19.395Z,9.203654
2023-01-30T06:54:19.402Z,9.203789
2023-01-30T06:55:19.774Z,9.203607
2023-01-30T06:56:19.402Z,9.203772
2023-01-30T06:57:19.380Z,9.203775
2023-01-30T06:58:19.404Z,9.203731
2023-01-30T06:59:19.363Z,9.203748
2023-01-30T07:00:19.364Z,9.203811
2023-01-30T07:01:19.386Z,9.203862
2023-01-30T07:02:19.365Z,9.203936
2023-01-30T07:03:20.338Z,9.203964
2023-01-30T07:04:19.420Z,9.204160
2023-01-30T07:05:19.670Z,9.204178
2023-01-30T07:06:19.325Z,9.203899
2023-01-30T07:07:19.378Z,9.203918
2023-01-30T07:08:19.332Z,9.203980
2023-01-30T07:09:19.306Z,9.203731
2023-01-30T07:10:19.382Z,9.203615
2023-01-30T07:11:19.281Z,9.203836
2023-01-30T07:12:19.336Z,9.203268
2023-01-30T07:13:20.329Z,9.203373
2023-01-30T07:14:19.289Z,9.203408
2023-01-30T07:15:19.578Z,9.202953
2023-01-30T07:16:19.320Z,9.203286
2023-01-30T07:17:19.278Z,9.203943
2023-01-30T07:18:19.342Z,9.203688
2023-01-30T07:19:19.262Z,9.203470
2023-01-30T07:20:19.257Z,9.204199
2023-01-30T07:21:19.248Z,9.205020
2023-01-30T07:22:19.218Z,9.204513
2023-01-30T07:23:19.216Z,9.203865
2023-01-30T07:24:19.233Z,9.203410
2023-01-30T07:25:20.530Z,9.203671
2023-01-30T07:26:19.253Z,9.203569
2023-01-30T07:27:19.195Z,9.203790
2023-01-30T07:28:19.176Z,9.203751
2023-01-30T07:29:19.258Z,9.203712
2023-01-30T07:30:19.190Z,9.203682
2023-01-30T07:31:19.220Z,9.203277
2023-01-30T07:32:19.187Z,9.203593
2023-01-30T07:33:19.196Z,9.203589
2023-01-30T07:34:19.157Z,9.203673
2023-01-30T07:35:19.493Z,9.203627
2023-01-30T07:36:19.158Z,9.203224
2023-01-30T07:37:19.157Z,9.203802
2023-01-30T07:38:19.158Z,9.203704
2023-01-30T07:39:19.127Z,9.203516
2023-01-30T07:40:19.095Z,9.203302
2023-01-30T07:41:19.132Z,9.203350
2023-01-30T07:42:19.143Z,9.203426
2023-01-30T07:43:19.092Z,9.203483
2023-01-30T07:44:19.089Z,9.203523
2023-01-30T07:45:19.483Z,9.203675
2023-01-30T07:46:19.071Z,9.203755
2023-01-30T07:47:19.149Z,9.203666
2023-01-30T07:48:19.080Z,9.203415
2023-01-30T07:49:19.074Z,9.203386
2023-01-30T07:50:20.422Z,9.203515
2023-01-30T07:51:19.061Z,9.203581
2023-01-30T07:52:19.057Z,9.203455
2023-01-30T07:53:19.024Z,9.203800
2023-01-30T07:54:19.040Z,9.203773
2023-01-30T07:55:19.212Z,9.203719
2023-01-30T07:56:19.027Z,9.203688
2023-01-30T07:57:19.006Z,9.203697
2023-01-30T07:58:18.993Z,9.203808
2023-01-30T07:59:18.964Z,9.203813
2023-01-30T08:00:19.238Z,9.203581
2023-01-30T08:01:19.035Z,9.203636
2023-01-30T08:02:18.972Z,9.203469
2023-01-30T08:03:18.982Z,9.203632
2023-01-30T08:04:18.979Z,9.204565
2023-01-30T08:05:18.964Z,9.204036
2023-01-30T08:06:18.975Z,9.204182
2023-01-30T08:07:18.943Z,9.204076
2023-01-30T08:08:18.924Z,9.203499
2023-01-30T08:09:18.941Z,9.203758
2023-01-30T08:10:19.314Z,9.203998
2023-01-30T08:11:18.929Z,9.203842
2023-01-30T08:12:18.891Z,9.204121
2023-01-30T08:13:18.895Z,9.203969
2023-01-30T08:14:18.924Z,9.203802
2023-01-30T08:15:20.613Z,9.203760
2023-01-30T08:16:18.917Z,9.204335
2023-01-30T08:17:18.918Z,9.203802
2023-01-30T08:18:18.907Z,9.204067
2023-01-30T08:19:18.861Z,9.204161
2023-01-30T08:20:19.068Z,9.204231
2023-01-30T08:21:18.841Z,9.203761
2023-01-30T08:22:18.866Z,9.203646
2023-01-30T08:23:18.830Z,9.203900
2023-01-30T08:24:18.831Z,9.203935
2023-01-30T08:25:18.889Z,9.203768
2023-01-30T08:26:18.853Z,9.203514
2023-01-30T08:27:18.798Z,9.203794
2023-01-30T08:28:18.811Z,9.203768
2023-01-30T08:29:18.807Z,9.204082
2023-01-30T08:30:19.153Z,9.203766
2023-01-30T08:31:18.831Z,9.203920
2023-01-30T08:32:18.790Z,9.203928
2023-01-30T08:33:18.777Z,9.203712
2023-01-30T08:34:18.785Z,9.204066
2023-01-30T08:35:18.757Z,9.204126
2023-01-30T08:36:18.759Z,9.203824
2023-01-30T08:37:18.769Z,9.203861
2023-01-30T08:38:18.722Z,9.203723
2023-01-30T08:39:18.731Z,9.203437
2023-01-30T08:40:19.130Z,9.203610
2023-01-30T08:41:18.712Z,9.203654
2023-01-30T08:42:18.741Z,9.203499
2023-01-30T08:43:18.703Z,9.203600
2023-01-30T08:44:18.696Z,9.203755
2023-01-30T08:45:18.720Z,9.203673
2023-01-30T08:46:18.716Z,9.203598
2023-01-30T08:47:18.672Z,9.203590
2023-01-30T08:48:18.661Z,9.203701
2023-01-30T08:49:18.679Z,9.203683
2023-01-30T08:50:19.033Z,9.203749
2023-01-30T08:51:18.670Z,9.203858
2023-01-30T08:52:18.668Z,9.203750
2023-01-30T08:53:18.711Z,9.203623
2023-01-30T08:54:18.648Z,9.203763
2023-01-30T08:55:18.630Z,9.203610
2023-01-30T08:56:18.621Z,9.203700
2023-01-30T08:57:18.646Z,9.203633
2023-01-30T08:58:18.626Z,9.203574
2023-01-30T08:59:18.611Z,9.203549
2023-01-30T09:00:18.912Z,9.203497
2023-01-30T09:01:18.693Z,9.203482
2023-01-30T09:02:18.640Z,9.203607
2023-01-30T09:03:18.594Z,9.203758
2023-01-30T09:04:18.571Z,9.203610
2023-01-30T09:05:18.638Z,9.203515
2023-01-30T09:06:18.579Z,9.203032
2023-01-30T09:07:18.561Z,9.203355
2023-01-30T09:08:18.584Z,9.203320
2023-01-30T09:09:18.545Z,9.203152
2023-01-30T09:10:18.857Z,9.203303
2023-01-30T09:11:18.532Z,9.203165
2023-01-30T09:12:18.577Z,9.203267
2023-01-30T09:13:18.523Z,9.202716
2023-01-30T09:14:18.505Z,9.202857
2023-01-30T09:15:18.525Z,9.203422
2023-01-30T09:16:18.594Z,9.203648
2023-01-30T09:17:18.479Z,9.203810
2023-01-30T09:18:18.476Z,9.203490
2023-01-30T09:19:18.469Z,9.203617
2023-01-30T09:20:18.937Z,9.203573
2023-01-30T09:21:18.456Z,9.203686
2023-01-30T09:22:18.502Z,9.203735
2023-01-30T09:23:18.447Z,9.203574
2023-01-30T09:24:18.431Z,9.203547
2023-01-30T09:25:18.452Z,9.203564
2023-01-30T09:26:18.487Z,9.203545
2023-01-30T09:27:18.519Z,9.203714
2023-01-30T09:28:18.438Z,9.203809
2023-01-30T09:29:18.427Z,9.203866
2023-01-30T09:30:18.918Z,9.203773
2023-01-30T09:31:18.489Z,9.203799
2023-01-30T09:32:18.404Z,9.203812
2023-01-30T09:33:18.392Z,9.203778
2023-01-30T09:34:18.386Z,9.203730
2023-01-30T09:35:18.415Z,9.203568
2023-01-30T09:36:18.360Z,9.203749
2023-01-30T09:37:18.346Z,9.203453
2023-01-30T09:38:18.377Z,9.203876
2023-01-30T09:39:18.360Z,9.203774
2023-01-30T09:40:18.730Z,9.203697
2023-01-30T09:41:18.357Z,9.203713
2023-01-30T09:42:18.321Z,9.203665
2023-01-30T09:43:18.344Z,9.203808
2023-01-30T09:44:18.333Z,9.203724
2023-01-30T09:45:18.318Z,9.203810
2023-01-30T09:46:18.349Z,9.203744
2023-01-30T09:47:18.296Z,9.203575
2023-01-30T09:48:19.512Z,9.203697
2023-01-30T09:49:18.263Z,9.203552
2023-01-30T09:50:18.641Z,9.203583
2023-01-30T09:51:18.288Z,9.203262
2023-01-30T09:52:18.304Z,9.203403
2023-01-30T09:53:18.289Z,9.203409
2023-01-30T09:54:18.259Z,9.203563
2023-01-30T09:55:18.247Z,9.203853
2023-01-30T09:56:18.257Z,9.203540
2023-01-30T09:57:21.896Z,9.203576
2023-01-30T09:58:18.253Z,9.203166
2023-01-30T09:59:18.211Z,9.203328
2023-01-30T10:00:18.495Z,9.203478
2023-01-30T10:01:19.526Z,9.203474
2023-01-30T10:02:18.193Z,9.203637
2023-01-30T10:03:18.222Z,9.203839
2023-01-30T10:04:18.205Z,9.203708
2023-01-30T10:05:18.213Z,9.203805
2023-01-30T10:06:18.147Z,9.203779
2023-01-30T10:07:19.145Z,9.203686
2023-01-30T10:08:18.167Z,9.203635
2023-01-30T10:09:18.155Z,9.203717
2023-01-30T10:10:18.518Z,9.203732
2023-01-30T10:11:18.115Z,9.203521
2023-01-30T10:12:18.130Z,9.203665
2023-01-30T10:13:18.123Z,9.203681
2023-01-30T10:14:18.193Z,9.203588
2023-01-30T10:15:18.164Z,9.203748
2023-01-30T10:16:18.201Z,9.203603
2023-01-30T10:17:18.085Z,9.203894
2023-01-30T10:18:18.112Z,9.203918
2023-01-30T10:19:23.378Z,9.203974
2023-01-30T10:20:20.480Z,9.204475
2023-01-30T10:21:18.083Z,9.204065
2023-01-30T10:22:18.077Z,9.203969
2023-01-30T10:23:18.090Z,9.204083
2023-01-30T10:24:18.090Z,9.204043
2023-01-30T10:25:18.040Z,9.203762
2023-01-30T10:26:18.068Z,9.203612
2023-01-30T10:27:18.053Z,9.203731
2023-01-30T10:28:18.046Z,9.203528
2023-01-30T10:29:18.080Z,9.203502
2023-01-30T10:30:18.361Z,9.203548
2023-01-30T10:31:18.197Z,9.203616
2023-01-30T10:32:18.011Z,9.203710
2023-01-30T10:33:18.012Z,9.203617
2023-01-30T10:34:18.053Z,9.203475
2023-01-30T10:35:18.004Z,9.203585
2023-01-30T10:36:18.068Z,9.203533
2023-01-30T10:37:17.999Z,9.203709
2023-01-30T10:38:18.028Z,9.203684
2023-01-30T10:39:17.983Z,9.203620
2023-01-30T10:40:18.321Z,9.203472
2023-01-30T10:41:18.003Z,9.203531
2023-01-30T10:42:17.991Z,9.203431
2023-01-30T10:43:18.036Z,9.203481
2023-01-30T10:44:17.969Z,9.203464
2023-01-30T10:45:17.977Z,9.203519
2023-01-30T10:46:17.986Z,9.203585
2023-01-30T10:47:17.951Z,9.203669
2023-01-30T10:48:17.971Z,9.203688
2023-01-30T10:49:18.925Z,9.203672
2023-01-30T10:50:18.225Z,9.203809
2023-01-30T10:51:17.924Z,9.203683
2023-01-30T10:52:17.910Z,9.203704
2023-01-30T10:53:17.960Z,9.203712
2023-01-30T10:54:19.740Z,9.203643
2023-01-30T10:55:28.147Z,9.203545
2023-01-30T10:56:19.916Z,9.203650
2023-01-30T10:57:17.929Z,9.203556
2023-01-30T10:58:17.980Z,9.203674
2023-01-30T10:59:17.919Z,9.203849
2023-01-30T11:00:18.065Z,9.203713
2023-01-30T11:01:17.886Z,9.203580
2023-01-30T11:02:17.867Z,9.203595
2023-01-30T11:03:17.953Z,9.203619
2023-01-30T11:04:17.903Z,9.203670
2023-01-30T11:05:18.152Z,9.203660
2023-01-30T11:06:17.843Z,9.203642
2023-01-30T11:07:17.864Z,9.203696
2023-01-30T11:08:17.824Z,9.203734
2023-01-30T11:09:17.878Z,9.203758
2023-01-30T11:10:17.809Z,9.203803
2023-01-30T11:11:17.845Z,9.203703
2023-01-30T11:12:17.825Z,9.203636
2023-01-30T11:13:17.835Z,9.203621
2023-01-30T11:14:17.855Z,9.203809
2023-01-30T11:15:18.087Z,9.203732
2023-01-30T11:16:17.818Z,9.203506
2023-01-30T11:17:17.812Z,9.203637
2023-01-30T11:19:21.912Z,9.203699
2023-01-30T11:20:19.216Z,9.203917
2023-01-30T11:21:17.789Z,9.203524
2023-01-30T11:22:17.763Z,9.203570
2023-01-30T11:23:17.768Z,9.203612
2023-01-30T11:24:17.781Z,9.203659
2023-01-30T11:25:18.216Z,9.203965
2023-01-30T11:26:17.818Z,9.203654
2023-01-30T11:27:17.792Z,9.203768
2023-01-30T11:28:17.745Z,9.203782
2023-01-30T11:29:17.757Z,9.203712
2023-01-30T11:30:18.088Z,9.203690
2023-01-30T11:31:19.803Z,9.203691
2023-01-30T11:32:18.747Z,9.203698
2023-01-30T11:33:17.716Z,9.203629
2023-01-30T11:34:17.697Z,9.203630
2023-01-30T11:35:17.739Z,9.203642
2023-01-30T11:36:17.759Z,9.203760
2023-01-30T11:37:17.700Z,9.203650
2023-01-30T11:38:17.685Z,9.203762
2023-01-30T11:39:17.678Z,9.203715
2023-01-30T11:40:18.223Z,9.203727
2023-01-30T11:41:17.711Z,9.203636
2023-01-30T11:42:17.677Z,9.203554
2023-01-30T11:43:17.663Z,9.203703
2023-01-30T11:44:17.676Z,9.203723
2023-01-30T11:45:18.618Z,9.203754